Time;durP1;ratioP1;P1;durP2;ratioP2;P2;SDS_P1;SDS_P2;PMS_P1;PMS_P2;Temp;Humidity;BMP_temperature;BMP_pressure;BME280_temperature;BME280_humidity;BME280_pressure;Samples;Min_cycle;Max_cycle;Signal;HPM_P1;HPM_P2
2022/01/30 03:46:36;;;;;;;0.65;0.50;;;10.30;91.40;;;;;;5097963;24;20247;-81
2022/01/30 03:49:02;;;;;;;2.25;1.08;;;10.30;91.50;;;;;;4742926;30;20049;-80
2022/01/30 03:51:30;;;;;;;1.92;0.73;;;10.30;91.20;;;;;;4743283;30;20117;-82
2022/01/30 03:54:04;;;;;;;0.98;0.52;;;10.30;91.10;;;;;;4716306;30;20348;-81
2022/01/30 03:56:29;;;;;;;2.08;0.80;;;10.40;91.20;;;;;;4742595;30;20036;-82
2022/01/30 03:58:55;;;;;;;0.57;0.45;;;10.30;91.20;;;;;;4714353;30;20037;-82
2022/01/30 04:01:21;;;;;;;1.58;0.93;;;10.30;91.20;;;;;;4727102;30;20103;-82
2022/01/30 04:03:47;;;;;;;1.80;0.50;;;10.40;91.20;;;;;;4743295;30;20039;-82
2022/01/30 04:06:13;;;;;;;1.80;0.70;;;10.40;90.90;;;;;;4728316;30;20040;-82
2022/01/30 04:08:40;;;;;;;0.60;0.40;;;10.40;90.90;;;;;;4725924;30;20060;-82
2022/01/30 04:11:35;;;;;;;0.63;0.50;;;10.40;90.70;;;;;;4702558;30;20049;-82
2022/01/30 04:14:24;;;;;;;1.02;0.63;;;10.40;90.80;;;;;;4710496;30;20380;-82
2022/01/30 04:17:09;;;;;;;0.73;0.45;;;10.40;90.50;;;;;;4723591;30;20055;-82
2022/01/30 04:19:50;;;;;;;1.52;0.50;;;10.30;90.70;;;;;;4710186;30;20036;-82
2022/01/30 04:22:42;;;;;;;1.13;0.50;;;10.20;90.80;;;;;;4710876;30;20053;-81
2022/01/30 04:25:40;;;;;;;0.85;0.60;;;10.20;90.80;;;;;;4684323;30;20192;-82
2022/01/30 04:28:24;;;;;;;0.32;0.32;;;10.30;91.00;;;;;;4702439;30;20068;-82
2022/01/30 04:31:01;;;;;;;1.08;0.70;;;10.20;91.20;;;;;;4703180;30;20030;-82
2022/01/30 04:33:46;;;;;;;2.33;0.40;;;10.20;91.00;;;;;;4697456;30;20100;-82
2022/01/30 04:36:40;;;;;;;0.32;0.32;;;10.30;91.10;;;;;;4700903;30;20117;-82
2022/01/30 04:56:14;;;;;;;0.30;0.30;;;10.20;90.20;;;;;;4672093;30;20065;-81
2022/01/30 04:58:29;;;;;;;0.45;0.25;;;10.20;88.90;;;;;;4641500;30;20038;-82
2022/01/30 05:01:20;;;;;;;1.00;0.55;;;10.20;88.50;;;;;;4652236;30;20061;-82
2022/01/30 05:10:00;;;;;;;4.22;0.50;;;10.30;88.00;;;;;;4621177;31;20155;-82
2022/01/30 05:12:58;;;;;;;0.60;0.22;;;10.40;87.50;;;;;;4623230;30;20418;-82
2022/01/30 05:15:33;;;;;;;0.40;0.40;;;10.40;86.50;;;;;;4617811;31;20253;-82
2022/01/30 05:18:23;;;;;;;0.45;0.38;;;10.40;85.60;;;;;;4603370;31;20123;-82
2022/01/30 05:21:08;;;;;;;0.80;0.30;;;10.40;85.70;;;;;;4606937;31;20423;-82
2022/01/30 05:23:41;;;;;;;0.43;0.30;;;10.40;85.50;;;;;;4604320;31;20028;-81
2022/01/30 05:26:22;;;;;;;2.20;0.40;;;10.40;85.20;;;;;;4589521;31;20056;-81
2022/01/30 05:29:20;;;;;;;0.90;0.30;;;10.40;84.40;;;;;;4604585;31;20040;-82
2022/01/30 05:31:53;;;;;;;0.45;0.40;;;10.40;83.80;;;;;;4616063;30;20279;-82
2022/01/30 05:34:39;;;;;;;1.20;0.30;;;10.40;83.90;;;;;;4642854;30;20038;-82
2022/01/30 05:37:37;;;;;;;0.40;0.30;;;10.40;83.80;;;;;;4717154;30;20272;-82
2022/01/30 05:40:25;;;;;;;3.10;0.98;;;10.40;83.60;;;;;;4694171;30;20125;-82
2022/01/30 05:43:22;;;;;;;0.32;0.30;;;10.40;83.50;;;;;;4671800;30;20050;-82
2022/01/30 05:46:12;;;;;;;1.23;0.43;;;10.40;83.80;;;;;;4638112;30;20141;-82
2022/01/30 05:49:02;;;;;;;0.93;0.40;;;10.30;83.10;;;;;;4671533;30;20054;-82
2022/01/30 05:51:44;;;;;;;2.15;0.38;;;10.30;83.20;;;;;;4644749;30;20054;-82
2022/01/30 05:54:16;;;;;;;1.73;0.70;;;10.20;83.30;;;;;;4643910;30;20054;-82
2022/01/30 05:56:42;;;;;;;4.57;1.17;;;10.10;82.70;;;;;;4643477;30;20092;-82
2022/01/30 05:59:15;;;;;;;3.95;0.82;;;10.00;82.30;;;;;;4630522;30;20319;-82
2022/01/30 06:02:01;;;;;;;3.10;0.80;;;9.90;80.30;;;;;;4640480;30;20058;-82
2022/01/30 06:04:27;;;;;;;3.13;0.90;;;9.90;79.70;;;;;;4640047;30;20298;-82
2022/01/30 06:06:54;;;;;;;5.80;1.20;;;9.80;79.70;;;;;;4639210;30;20051;-82
2022/01/30 06:09:21;;;;;;;5.80;1.02;;;9.80;79.90;;;;;;4640230;30;20038;-82
2022/01/30 06:11:50;;;;;;;5.20;0.90;;;9.70;79.20;;;;;;4640675;30;20057;-82
2022/01/30 06:14:19;;;;;;;2.33;0.75;;;9.70;79.50;;;;;;4625788;30;20051;-82
2022/01/30 06:16:45;;;;;;;2.03;1.00;;;9.70;78.80;;;;;;4629619;31;20035;-82
2022/01/30 06:19:30;;;;;;;4.75;0.95;;;9.60;75.60;;;;;;4648403;30;20286;-82
2022/01/30 06:22:14;;;;;;;2.97;1.10;;;9.60;75.00;;;;;;4698543;30;20052;-82
2022/01/30 06:24:58;;;;;;;5.50;1.15;;;9.50;73.30;;;;;;4705618;30;20044;-81
2022/01/30 06:27:44;;;;;;;12.73;1.98;;;9.50;71.80;;;;;;4718462;30;20041;-82
2022/01/30 06:30:28;;;;;;;8.32;1.20;;;9.50;70.90;;;;;;4710933;30;20130;-81
2022/01/30 06:33:23;;;;;;;5.25;1.42;;;9.50;71.00;;;;;;4700649;30;20037;-81
2022/01/30 06:36:24;;;;;;;6.18;1.20;;;9.50;69.70;;;;;;4676071;30;20049;-82
2022/01/30 06:39:00;;;;;;;4.75;1.20;;;9.40;69.10;;;;;;4707013;30;20052;-81
2022/01/30 06:41:32;;;;;;;7.63;1.27;;;9.50;69.50;;;;;;4727648;30;20087;-81
2022/01/30 06:44:16;;;;;;;8.32;2.20;;;9.50;69.80;;;;;;4741055;30;20079;-81
2022/01/30 06:47:01;;;;;;;6.88;1.70;;;9.50;70.00;;;;;;4736174;30;20303;-82
2022/01/30 06:49:26;;;;;;;8.27;1.45;;;9.50;71.30;;;;;;4740273;30;20055;-82
2022/01/30 06:52:11;;;;;;;6.03;1.65;;;9.50;71.50;;;;;;4740210;30;20367;-82
2022/01/30 06:54:56;;;;;;;4.72;1.73;;;9.40;71.70;;;;;;4726189;30;20440;-82
2022/01/30 06:57:45;;;;;;;6.30;1.55;;;9.40;73.00;;;;;;4722924;30;20275;-82
2022/01/30 07:00:30;;;;;;;13.98;2.20;;;9.40;73.00;;;;;;4736687;30;20058;-81
2022/01/30 07:03:14;;;;;;;3.40;1.33;;;9.40;73.60;;;;;;4740884;30;20061;-83
2022/01/30 07:05:50;;;;;;;5.10;1.70;;;9.40;73.60;;;;;;4714126;30;20036;-83
2022/01/30 07:08:33;;;;;;;6.28;1.73;;;9.40;74.30;;;;;;4714781;30;20036;-82
2022/01/30 07:10:59;;;;;;;3.75;1.27;;;9.40;74.10;;;;;;4710777;30;20095;-83
2022/01/30 07:13:25;;;;;;;6.90;1.70;;;9.40;73.90;;;;;;4724840;30;20099;-82
2022/01/30 07:15:50;;;;;;;8.80;1.88;;;9.40;73.70;;;;;;4729270;30;20052;-82
2022/01/30 07:18:16;;;;;;;5.03;1.42;;;9.50;74.10;;;;;;4741574;30;20052;-82
2022/01/30 07:20:42;;;;;;;5.95;1.35;;;9.40;73.50;;;;;;4726173;30;20167;-82
2022/01/30 07:23:08;;;;;;;5.60;1.45;;;9.60;73.40;;;;;;4728201;30;20040;-82
2022/01/30 07:25:33;;;;;;;5.60;1.58;;;9.70;73.00;;;;;;4728672;30;20095;-81
2022/01/30 07:27:59;;;;;;;7.20;1.73;;;9.70;72.30;;;;;;4726769;30;20033;-83
2022/01/30 07:30:25;;;;;;;6.80;2.10;;;9.70;72.70;;;;;;4727223;30;20155;-83
2022/01/30 07:32:51;;;;;;;6.75;1.85;;;9.60;72.70;;;;;;4728099;30;20048;-82
2022/01/30 07:35:17;;;;;;;7.70;2.25;;;9.70;72.70;;;;;;4731124;30;20056;-82
2022/01/30 07:37:43;;;;;;;5.82;1.52;;;9.70;73.30;;;;;;4728710;30;20354;-83
2022/01/30 07:40:10;;;;;;;5.30;1.63;;;9.60;73.00;;;;;;4729447;30;20151;-82
2022/01/30 07:42:36;;;;;;;7.95;1.42;;;9.60;72.60;;;;;;4714473;30;20335;-82
2022/01/30 07:45:05;;;;;;;4.25;1.77;;;9.60;72.80;;;;;;4729066;30;20053;-82
2022/01/30 07:47:30;;;;;;;7.38;2.03;;;9.60;71.90;;;;;;4727067;30;20285;-82
2022/01/30 07:49:57;;;;;;;8.68;1.60;;;9.60;71.90;;;;;;4714093;30;20044;-82
2022/01/30 07:52:23;;;;;;;8.90;2.42;;;9.60;69.50;;;;;;4713142;30;20074;-82
2022/01/30 07:54:50;;;;;;;12.00;1.63;;;9.60;69.30;;;;;;4743405;30;20040;-82
2022/01/30 07:57:17;;;;;;;7.70;2.30;;;9.60;68.70;;;;;;4728458;30;20042;-81
2022/01/30 07:59:43;;;;;;;4.93;1.67;;;9.70;67.90;;;;;;4732055;30;20068;-82
2022/01/30 08:02:09;;;;;;;9.45;1.80;;;9.70;65.70;;;;;;4729488;30;20032;-84
2022/01/30 08:04:34;;;;;;;8.45;1.63;;;9.80;65.00;;;;;;4731419;30;20062;-81
2022/01/30 08:07:01;;;;;;;7.47;1.80;;;9.80;63.60;;;;;;4731819;30;20029;-81
2022/01/30 08:09:27;;;;;;;13.32;2.20;;;9.80;63.70;;;;;;4735073;30;20037;-82
2022/01/30 08:11:54;;;;;;;5.75;1.48;;;9.90;63.80;;;;;;4734809;30;20048;-82
2022/01/30 08:14:20;;;;;;;10.70;2.67;;;10.10;62.60;;;;;;4745117;30;20025;-82
2022/01/30 08:16:46;;;;;;;9.15;2.13;;;10.20;62.20;;;;;;4741875;30;20037;-82
2022/01/30 08:19:12;;;;;;;6.18;1.77;;;10.20;61.50;;;;;;4726881;30;20028;-82
2022/01/30 08:21:37;;;;;;;5.03;1.65;;;10.30;62.00;;;;;;4726610;30;20172;-82
2022/01/30 08:24:04;;;;;;;6.05;1.38;;;10.20;61.10;;;;;;4727252;30;20033;-82
2022/01/30 08:26:29;;;;;;;8.68;1.55;;;10.20;59.00;;;;;;4727425;30;20060;-81
2022/01/30 08:28:55;;;;;;;9.60;1.90;;;10.20;58.90;;;;;;4725665;30;20036;-82
2022/01/30 08:31:21;;;;;;;5.18;1.67;;;10.20;59.10;;;;;;4725921;30;20032;-81
2022/01/30 08:33:47;;;;;;;8.18;1.77;;;10.20;58.80;;;;;;4726418;30;20035;-82
2022/01/30 08:36:13;;;;;;;9.43;2.00;;;10.20;58.00;;;;;;4726946;30;20044;-81
2022/01/30 08:38:39;;;;;;;9.18;1.95;;;10.20;58.00;;;;;;4711810;30;20055;-81
2022/01/30 08:41:05;;;;;;;10.10;2.30;;;10.20;58.20;;;;;;4726622;30;20100;-82
2022/01/30 08:43:31;;;;;;;12.98;2.20;;;10.10;57.90;;;;;;4726862;30;20044;-82
2022/01/30 08:45:58;;;;;;;12.60;2.25;;;10.20;58.00;;;;;;4740379;30;20344;-82
2022/01/30 08:48:24;;;;;;;7.40;1.70;;;10.20;57.50;;;;;;4710034;30;20295;-82
2022/01/30 08:50:50;;;;;;;4.68;1.50;;;10.20;57.70;;;;;;4711963;30;20044;-82
2022/01/30 08:53:16;;;;;;;8.32;1.90;;;10.20;56.60;;;;;;4726219;30;20032;-81
2022/01/30 08:55:43;;;;;;;6.43;1.77;;;10.10;56.60;;;;;;4725986;30;20045;-83
2022/01/30 08:58:09;;;;;;;7.40;1.83;;;10.20;57.20;;;;;;4726354;30;20078;-83
2022/01/30 09:00:42;;;;;;;6.65;1.77;;;10.20;56.00;;;;;;4726363;30;20040;-81
2022/01/30 09:03:08;;;;;;;8.70;2.15;;;10.20;55.80;;;;;;4739756;30;20078;-83
2022/01/30 09:05:35;;;;;;;9.37;1.87;;;10.20;56.00;;;;;;4725880;30;20184;-82
2022/01/30 09:08:05;;;;;;;6.88;1.52;;;10.30;54.70;;;;;;4726519;30;20036;-82
2022/01/30 09:10:32;;;;;;;8.45;2.42;;;10.30;55.10;;;;;;4726847;30;20037;-83
2022/01/30 09:12:57;;;;;;;10.18;2.45;;;10.40;53.70;;;;;;4712119;30;20036;-84
2022/01/30 09:15:23;;;;;;;14.57;1.92;;;10.50;54.00;;;;;;4741409;30;20033;-83
2022/01/30 09:17:52;;;;;;;10.02;1.58;;;10.60;52.90;;;;;;4725405;30;20597;-83
2022/01/30 09:20:20;;;;;;;9.35;2.00;;;10.50;51.70;;;;;;4713420;30;20040;-84
2022/01/30 09:22:46;;;;;;;10.60;2.08;;;10.50;52.50;;;;;;4726613;30;20045;-85
2022/01/30 09:25:12;;;;;;;8.13;2.05;;;10.40;52.00;;;;;;4725398;30;20079;-84
2022/01/30 09:27:38;;;;;;;10.57;2.22;;;10.30;52.10;;;;;;4726975;30;20037;-84
2022/01/30 09:30:07;;;;;;;10.40;2.28;;;10.30;51.40;;;;;;4711199;30;20040;-84
2022/01/30 09:32:33;;;;;;;11.93;2.15;;;10.20;51.00;;;;;;4739678;30;20033;-83
2022/01/30 09:34:59;;;;;;;6.57;2.30;;;10.20;51.00;;;;;;4727041;30;20061;-84
2022/01/30 09:37:24;;;;;;;9.90;1.95;;;10.30;51.50;;;;;;4718444;30;20095;-84
2022/01/30 09:39:50;;;;;;;8.80;2.50;;;10.40;51.70;;;;;;4728945;30;20317;-84
2022/01/30 09:42:17;;;;;;;10.90;2.50;;;10.40;51.80;;;;;;4726595;30;20036;-84
2022/01/30 09:44:43;;;;;;;7.72;2.28;;;10.50;51.70;;;;;;4712079;30;20040;-85
2022/01/30 09:47:13;;;;;;;7.73;2.37;;;10.50;50.60;;;;;;4724799;30;20064;-84
2022/01/30 09:49:48;;;;;;;12.45;2.50;;;10.50;50.60;;;;;;4740443;30;20049;-84
2022/01/30 09:52:14;;;;;;;12.70;2.63;;;10.60;50.80;;;;;;4740772;30;20058;-85
2022/01/30 09:54:40;;;;;;;7.97;1.85;;;10.70;50.30;;;;;;4711996;30;20086;-84
2022/01/30 09:57:06;;;;;;;6.00;1.85;;;10.70;50.30;;;;;;4711609;30;20040;-84
2022/01/30 09:59:32;;;;;;;8.60;1.80;;;10.60;50.30;;;;;;4726773;30;20123;-85
2022/01/30 10:01:58;;;;;;;5.65;1.48;;;10.60;50.40;;;;;;4710331;30;20041;-82
2022/01/30 10:04:23;;;;;;;9.43;2.33;;;10.60;49.90;;;;;;4723204;30;20551;-84
2022/01/30 10:06:56;;;;;;;7.03;1.90;;;10.70;50.20;;;;;;4740097;30;20051;-84
2022/01/30 10:09:29;;;;;;;10.60;2.22;;;10.70;50.10;;;;;;4740572;30;20052;-84
2022/01/30 10:12:16;;;;;;;13.38;2.00;;;10.80;49.50;;;;;;4711848;30;20045;-84
2022/01/30 10:15:16;;;;;;;10.18;2.75;;;10.80;48.70;;;;;;4716643;30;20051;-84
2022/01/30 10:17:48;;;;;;;10.75;1.80;;;10.80;48.80;;;;;;4738972;30;20697;-84
2022/01/30 10:20:23;;;;;;;9.15;1.90;;;10.80;48.20;;;;;;4734794;30;20044;-84
2022/01/30 10:22:58;;;;;;;8.32;1.90;;;11.00;48.90;;;;;;4726055;30;20044;-84
2022/01/30 10:25:25;;;;;;;10.23;2.78;;;11.00;48.90;;;;;;4737848;30;20227;-84
2022/01/30 10:28:12;;;;;;;10.82;1.80;;;11.10;48.80;;;;;;4721083;30;20053;-83
2022/01/30 10:30:47;;;;;;;9.73;2.05;;;11.00;48.90;;;;;;4725532;30;20044;-84
2022/01/30 10:33:16;;;;;;;9.40;2.20;;;10.90;49.80;;;;;;4724267;30;20073;-84
2022/01/30 10:36:04;;;;;;;10.23;2.45;;;11.00;49.40;;;;;;4721537;30;20033;-83
2022/01/30 10:38:35;;;;;;;10.05;2.30;;;11.00;49.10;;;;;;4715122;30;20028;-83
2022/01/30 10:41:16;;;;;;;8.13;1.85;;;10.80;49.00;;;;;;4739966;30;20103;-83
2022/01/30 10:43:55;;;;;;;6.50;1.85;;;10.70;49.10;;;;;;4724835;30;20551;-83
2022/01/30 10:46:31;;;;;;;4.93;1.65;;;10.80;49.00;;;;;;4724896;30;20279;-83
2022/01/30 10:49:02;;;;;;;9.88;2.40;;;10.80;48.50;;;;;;4738268;30;20040;-83
2022/01/30 10:51:30;;;;;;;10.30;1.85;;;10.70;47.80;;;;;;4739625;30;20099;-82
2022/01/30 10:53:57;;;;;;;7.93;2.05;;;10.70;48.50;;;;;;4726323;30;20276;-83
2022/01/30 10:56:27;;;;;;;10.45;2.50;;;10.70;48.10;;;;;;4739890;30;20532;-83
2022/01/30 10:59:21;;;;;;;8.65;1.50;;;10.60;48.40;;;;;;4722776;30;20057;-84
2022/01/30 11:01:49;;;;;;;7.43;1.63;;;10.70;48.60;;;;;;4751952;30;20041;-83
2022/01/30 11:04:25;;;;;;;9.00;2.53;;;10.80;48.10;;;;;;4710536;30;20120;-84
2022/01/30 11:06:52;;;;;;;8.00;1.98;;;10.90;47.60;;;;;;4725570;30;20053;-84
2022/01/30 11:09:27;;;;;;;9.15;1.77;;;10.90;47.50;;;;;;4739822;30;20048;-84
2022/01/30 11:17:18;;;;;;;9.73;2.30;;;11.00;47.30;;;;;;4725925;30;20174;-84
2022/01/30 11:19:51;;;;;;;7.57;1.83;;;11.00;47.20;;;;;;4727097;30;20256;-84
2022/01/30 11:22:23;;;;;;;5.13;1.83;;;11.00;47.40;;;;;;4726189;30;20040;-84
2022/01/30 11:25:02;;;;;;;9.43;2.92;;;10.90;47.00;;;;;;4742180;30;20279;-84
2022/01/30 11:27:28;;;;;;;11.55;1.52;;;11.00;47.60;;;;;;4741163;30;20387;-84
2022/01/30 11:29:54;;;;;;;10.40;2.03;;;11.00;46.70;;;;;;4713608;30;20044;-84
2022/01/30 11:32:23;;;;;;;6.22;1.73;;;11.00;46.00;;;;;;4726267;30;20074;-84
2022/01/30 11:34:49;;;;;;;6.30;1.85;;;11.00;45.40;;;;;;4727404;30;20255;-84
2022/01/30 11:37:17;;;;;;;4.80;1.75;;;11.10;45.90;;;;;;4726700;30;20048;-83
2022/01/30 11:39:46;;;;;;;8.88;2.28;;;11.10;46.00;;;;;;4741634;30;20332;-83
2022/01/30 11:42:13;;;;;;;10.77;1.60;;;11.00;44.30;;;;;;4741269;30;20110;-84
2022/01/30 11:44:43;;;;;;;13.20;1.95;;;11.00;45.20;;;;;;4741030;30;20702;-84
2022/01/30 11:47:09;;;;;;;11.23;2.05;;;11.00;44.40;;;;;;4754840;30;20098;-84
2022/01/30 11:49:40;;;;;;;7.20;1.50;;;11.20;45.20;;;;;;4739860;30;20044;-84
2022/01/30 11:52:09;;;;;;;9.02;1.90;;;11.10;44.60;;;;;;4727009;30;20044;-83
2022/01/30 11:54:41;;;;;;;9.98;2.05;;;11.00;45.00;;;;;;4724514;30;20052;-84
2022/01/30 11:57:22;;;;;;;15.15;1.65;;;11.00;44.80;;;;;;4724863;30;20108;-84
2022/01/30 11:59:56;;;;;;;6.32;1.88;;;11.00;45.20;;;;;;4735030;30;20704;-83
2022/01/30 12:02:30;;;;;;;9.30;2.10;;;11.00;43.80;;;;;;4707626;30;20045;-84
2022/01/30 12:05:03;;;;;;;6.38;1.77;;;10.90;44.20;;;;;;4741059;30;20044;-84
2022/01/30 12:07:35;;;;;;;12.55;1.92;;;10.90;44.60;;;;;;4725435;30;20041;-84
2022/01/30 12:10:16;;;;;;;7.22;1.88;;;10.80;45.00;;;;;;4738883;30;20036;-85
2022/01/30 12:13:03;;;;;;;5.78;1.80;;;10.80;45.30;;;;;;4741142;30;20028;-83
2022/01/30 12:15:49;;;;;;;11.90;2.15;;;10.80;45.80;;;;;;4724665;30;20049;-84
2022/01/30 12:18:44;;;;;;;8.00;1.92;;;10.80;46.00;;;;;;4718395;30;20404;-84
2022/01/30 12:21:16;;;;;;;11.52;2.13;;;10.90;46.80;;;;;;4734713;30;20040;-83
2022/01/30 12:23:43;;;;;;;10.02;2.28;;;10.90;46.90;;;;;;4742748;30;20454;-84
2022/01/30 12:26:15;;;;;;;6.88;2.20;;;10.90;47.40;;;;;;4725632;30;20060;-85
2022/01/30 12:28:42;;;;;;;9.02;1.73;;;11.00;47.20;;;;;;4751775;30;20141;-84
2022/01/30 12:31:33;;;;;;;12.00;2.28;;;11.20;47.20;;;;;;4758260;30;20328;-84
2022/01/30 12:34:29;;;;;;;7.70;1.88;;;11.20;45.80;;;;;;4756031;30;20036;-84
2022/01/30 12:36:55;;;;;;;9.07;1.85;;;11.10;45.50;;;;;;4688692;30;20110;-84
2022/01/30 12:39:23;;;;;;;5.72;1.80;;;10.90;45.90;;;;;;4674604;30;20361;-84
2022/01/30 12:41:49;;;;;;;;;;;10.80;46.40;;;;;;4660128;30;20109;-84
2022/01/30 12:44:19;;;;;;;7.15;2.15;;;10.70;47.50;;;;;;4673817;30;19916;-83
2022/01/30 12:46:50;;;;;;;15.73;2.85;;;10.70;46.80;;;;;;4673160;30;20058;-84
2022/01/30 12:49:24;;;;;;;9.93;2.30;;;10.70;47.10;;;;;;4659446;30;20049;-85
2022/01/30 12:51:58;;;;;;;12.65;2.58;;;10.60;46.60;;;;;;4675713;30;20620;-84
2022/01/30 12:54:37;;;;;;;7.07;1.88;;;10.50;47.30;;;;;;4662221;30;20120;-84
2022/01/30 12:57:04;;;;;;;10.65;2.25;;;10.50;46.40;;;;;;4663327;30;20113;-86
2022/01/30 12:59:29;;;;;;;11.02;1.65;;;10.40;46.40;;;;;;4656360;30;20056;-85
2022/01/30 13:02:06;;;;;;;9.85;1.40;;;10.40;46.10;;;;;;4645634;30;20101;-84
2022/01/30 13:04:32;;;;;;;5.65;2.10;;;10.40;46.00;;;;;;4668684;30;20038;-84
2022/01/30 13:06:58;;;;;;;5.60;2.15;;;10.40;46.30;;;;;;4657249;30;20118;-84
2022/01/30 13:09:26;;;;;;;8.05;2.38;;;10.30;46.30;;;;;;4643634;30;20368;-84
2022/01/30 13:11:53;;;;;;;10.18;2.08;;;10.30;46.40;;;;;;4655130;30;20069;-83
2022/01/30 13:14:20;;;;;;;7.80;1.73;;;10.30;46.80;;;;;;4701701;30;20053;-84
2022/01/30 13:16:50;;;;;;;8.95;1.55;;;10.30;47.00;;;;;;4728510;30;20753;-84
2022/01/30 13:19:35;;;;;;;10.25;2.03;;;10.30;46.90;;;;;;4723547;30;20051;-84
2022/01/30 13:22:04;;;;;;;11.50;2.35;;;10.30;46.30;;;;;;4739582;30;20087;-84
2022/01/30 13:24:32;;;;;;;11.38;2.45;;;10.20;47.60;;;;;;4740700;30;20236;-84
2022/01/30 13:26:57;;;;;;;6.95;1.23;;;10.20;46.90;;;;;;4724755;30;20343;-83
2022/01/30 13:29:25;;;;;;;8.93;2.08;;;10.20;47.40;;;;;;4726707;30;20040;-83
2022/01/30 13:31:56;;;;;;;7.13;2.17;;;10.20;46.80;;;;;;4729374;30;20048;-84
2022/01/30 13:34:26;;;;;;;7.43;2.13;;;10.30;47.20;;;;;;4723976;30;20102;-84
2022/01/30 13:37:05;;;;;;;9.73;2.20;;;10.30;47.30;;;;;;4739366;30;20037;-83
2022/01/30 13:39:47;;;;;;;10.23;1.60;;;10.30;47.60;;;;;;4726766;30;20056;-84
2022/01/30 13:42:39;;;;;;;7.13;2.08;;;10.20;48.30;;;;;;4725350;30;20087;-84
2022/01/30 13:48:11;;;;;;;7.53;1.90;;;10.20;47.50;;;;;;4738540;30;20064;-84
2022/01/30 13:50:41;;;;;;;7.75;2.28;;;10.10;47.90;;;;;;4739024;30;20039;-84
2022/01/30 13:53:11;;;;;;;6.80;1.70;;;10.10;48.10;;;;;;4738194;30;20039;-84
2022/01/30 13:55:51;;;;;;;12.45;2.70;;;10.10;48.20;;;;;;4739481;30;20068;-84
2022/01/30 13:58:19;;;;;;;11.60;2.08;;;10.00;47.90;;;;;;4739181;30;20036;-84
2022/01/30 14:00:45;;;;;;;14.50;2.72;;;10.00;48.30;;;;;;4711094;30;20037;-84
2022/01/30 14:03:21;;;;;;;7.10;1.73;;;10.10;48.20;;;;;;4721597;30;20105;-84
2022/01/30 14:05:47;;;;;;;9.65;2.08;;;10.10;48.40;;;;;;4733539;30;20037;-83
2022/01/30 14:08:15;;;;;;;6.45;1.70;;;10.10;48.90;;;;;;4739329;30;20435;-83
2022/01/30 14:10:43;;;;;;;6.60;1.65;;;10.20;49.10;;;;;;4724553;30;20051;-84
2022/01/30 14:13:22;;;;;;;16.75;3.33;;;10.10;49.50;;;;;;4725035;30;20044;-84
2022/01/30 14:16:06;;;;;;;6.78;1.70;;;10.10;49.40;;;;;;4735455;30;20070;-84
2022/01/30 14:18:36;;;;;;;11.90;2.53;;;10.10;49.50;;;;;;4724301;30;20075;-84
2022/01/30 14:21:14;;;;;;;10.68;2.53;;;10.10;49.50;;;;;;4710892;30;20059;-84
2022/01/30 14:23:39;;;;;;;11.60;1.83;;;10.10;49.50;;;;;;4725872;30;20044;-84
2022/01/30 14:26:28;;;;;;;13.30;2.30;;;10.00;48.70;;;;;;4709944;30;20352;-84
2022/01/30 14:29:12;;;;;;;20.70;2.88;;;10.00;49.10;;;;;;4718639;30;20048;-84
2022/01/30 14:31:53;;;;;;;9.05;2.38;;;10.00;49.50;;;;;;4725811;30;20118;-84
2022/01/30 14:34:20;;;;;;;8.43;1.80;;;10.00;49.50;;;;;;4723958;30;20036;-84
2022/01/30 14:36:46;;;;;;;8.77;2.00;;;10.00;49.40;;;;;;4711556;30;20102;-84
2022/01/30 14:39:12;;;;;;;11.30;2.70;;;10.00;49.50;;;;;;4707952;30;20049;-84
2022/01/30 14:41:39;;;;;;;10.10;2.28;;;9.90;49.70;;;;;;4738273;30;20111;-85
2022/01/30 14:44:06;;;;;;;11.40;2.13;;;9.90;50.00;;;;;;4726458;30;20072;-84
2022/01/30 14:46:32;;;;;;;7.95;2.00;;;9.80;50.20;;;;;;4726393;30;20078;-83
2022/01/30 14:48:57;;;;;;;5.95;1.67;;;9.80;49.30;;;;;;4709045;30;20049;-82
2022/01/30 14:51:23;;;;;;;10.73;2.25;;;9.70;49.90;;;;;;4711364;30;20049;-83
2022/01/30 14:53:49;;;;;;;5.88;2.20;;;9.70;49.70;;;;;;4711321;30;20059;-83
2022/01/30 14:56:15;;;;;;;7.30;1.88;;;9.70;49.90;;;;;;4739228;30;20036;-83
2022/01/30 14:58:41;;;;;;;7.43;1.98;;;9.70;50.10;;;;;;4711112;30;20119;-84
2022/01/30 15:01:07;;;;;;;6.93;1.70;;;9.70;49.30;;;;;;4711038;30;20044;-83
2022/01/30 15:03:33;;;;;;;8.07;2.63;;;9.70;49.40;;;;;;4708882;30;20363;-83
2022/01/30 15:06:00;;;;;;;13.45;2.25;;;9.70;49.70;;;;;;4740311;30;20094;-83
2022/01/30 15:08:29;;;;;;;7.68;1.75;;;9.70;49.40;;;;;;4710655;30;20048;-84
2022/01/30 15:10:55;;;;;;;12.15;2.20;;;9.70;49.40;;;;;;4725327;30;20037;-83
2022/01/30 15:13:26;;;;;;;7.60;1.80;;;9.60;49.50;;;;;;4710602;30;20055;-84
2022/01/30 15:15:53;;;;;;;11.13;2.20;;;9.60;49.50;;;;;;4706185;30;20048;-84
2022/01/30 15:18:31;;;;;;;8.27;2.10;;;9.60;49.60;;;;;;4734129;30;20061;-83
2022/01/30 15:20:57;;;;;;;13.80;2.03;;;9.60;49.60;;;;;;4725974;30;20360;-83
2022/01/30 15:23:25;;;;;;;7.43;2.10;;;9.60;49.70;;;;;;4719323;30;20045;-83
2022/01/30 15:25:50;;;;;;;9.77;1.98;;;9.60;49.80;;;;;;4722791;30;20079;-84
2022/01/30 15:28:16;;;;;;;10.10;1.80;;;9.60;49.80;;;;;;4722130;30;20437;-84
2022/01/30 15:30:42;;;;;;;10.27;2.00;;;9.60;50.10;;;;;;4739238;30;20262;-84
2022/01/30 15:33:08;;;;;;;6.88;2.55;;;9.60;50.30;;;;;;4711816;30;20052;-84
2022/01/30 15:35:36;;;;;;;7.32;1.83;;;9.50;50.50;;;;;;4724503;30;20052;-84
2022/01/30 15:38:02;;;;;;;8.75;1.88;;;9.50;50.70;;;;;;4715866;30;20071;-83
2022/01/30 15:40:27;;;;;;;12.38;2.65;;;9.50;50.50;;;;;;4727190;30;20283;-84
2022/01/30 15:42:53;;;;;;;9.07;1.95;;;9.50;50.90;;;;;;4701108;30;20063;-83
2022/01/30 15:50:49;;;;;;;4.85;1.92;;;9.40;51.20;;;;;;4696381;30;20237;-82
2022/01/30 15:53:15;;;;;;;14.73;2.45;;;9.40;51.60;;;;;;4681385;30;20095;-85
2022/01/30 15:55:41;;;;;;;16.58;2.65;;;9.40;52.60;;;;;;4692505;30;20102;-84
2022/01/30 15:58:07;;;;;;;8.02;2.00;;;9.40;51.30;;;;;;4692727;30;20109;-83
2022/01/30 16:00:33;;;;;;;11.75;2.53;;;9.40;51.80;;;;;;4687382;30;20053;-83
2022/01/30 16:02:58;;;;;;;9.55;2.03;;;9.30;51.70;;;;;;4720727;30;20267;-84
2022/01/30 16:05:25;;;;;;;7.60;1.73;;;9.30;52.00;;;;;;4722411;30;20057;-83
2022/01/30 16:07:50;;;;;;;9.40;2.20;;;9.30;51.70;;;;;;4723358;30;20037;-84
2022/01/30 16:10:22;;;;;;;5.35;2.10;;;9.20;51.20;;;;;;4679888;30;20166;-83
2022/01/30 16:15:36;;;;;;;12.13;2.20;;;9.10;50.40;;;;;;4722551;30;20507;-84
2022/01/30 16:18:04;;;;;;;8.73;2.22;;;9.10;50.60;;;;;;4717886;30;20114;-84
2022/01/30 16:20:30;;;;;;;9.88;1.75;;;9.10;51.00;;;;;;4708083;30;20450;-83
2022/01/30 16:22:56;;;;;;;10.82;2.95;;;9.10;50.90;;;;;;4719278;30;20045;-83
2022/01/30 16:25:22;;;;;;;8.85;2.50;;;9.10;50.80;;;;;;4724179;30;20632;-83
2022/01/30 16:27:50;;;;;;;9.05;2.10;;;9.10;50.80;;;;;;4738509;30;20155;-84
2022/01/30 16:30:16;;;;;;;9.05;1.90;;;9.10;50.70;;;;;;4724487;30;20371;-83
2022/01/30 16:32:48;;;;;;;5.65;1.75;;;9.00;50.30;;;;;;4726488;30;20041;-84
2022/01/30 16:35:14;;;;;;;8.60;1.90;;;9.00;50.50;;;;;;4707634;30;20082;-84
2022/01/30 16:37:41;;;;;;;11.02;2.05;;;8.90;50.30;;;;;;4741538;30;20390;-84
2022/01/30 16:40:08;;;;;;;10.57;2.47;;;8.90;50.50;;;;;;4712673;30;20047;-84
2022/01/30 16:42:35;;;;;;;7.85;1.90;;;8.90;50.80;;;;;;4737751;30;20252;-84
2022/01/30 16:45:09;;;;;;;;;;;8.90;50.90;;;;;;4707595;30;20116;-83
2022/01/30 16:47:36;;;;;;;9.95;2.30;;;8.90;51.70;;;;;;4739818;30;19977;-83
2022/01/30 16:50:02;;;;;;;17.83;2.33;;;8.90;52.60;;;;;;4695689;30;20346;-83
2022/01/30 16:52:30;;;;;;;6.60;2.73;;;8.90;52.90;;;;;;4723173;30;20040;-83
2022/01/30 16:54:56;;;;;;;6.60;1.52;;;8.90;53.20;;;;;;4735002;30;20134;-83
2022/01/30 16:57:27;;;;;;;10.52;2.55;;;8.90;52.90;;;;;;4712692;30;20112;-83
2022/01/30 16:59:53;;;;;;;11.00;2.15;;;8.90;53.20;;;;;;4724856;30;20040;-83
2022/01/30 17:02:20;;;;;;;11.85;2.45;;;8.90;53.10;;;;;;4740150;30;20155;-83
2022/01/30 17:04:45;;;;;;;8.43;2.50;;;8.90;53.40;;;;;;4723587;30;20340;-84
2022/01/30 17:07:16;;;;;;;11.50;2.28;;;8.90;53.40;;;;;;4709340;30;20028;-83
2022/01/30 17:09:43;;;;;;;4.75;1.58;;;8.90;53.10;;;;;;4724897;30;20091;-83
2022/01/30 17:12:19;;;;;;;9.98;2.90;;;8.80;53.10;;;;;;4737524;30;20096;-83
2022/01/30 17:14:50;;;;;;;13.88;2.15;;;8.80;53.30;;;;;;4762015;30;20322;-83
2022/01/30 17:17:18;;;;;;;7.63;2.20;;;8.80;53.20;;;;;;4722281;30;20122;-83
2022/01/30 17:19:44;;;;;;;8.88;2.92;;;8.80;53.40;;;;;;4721490;30;20040;-83
2022/01/30 17:22:10;;;;;;;9.05;2.47;;;8.80;53.90;;;;;;4720588;30;20355;-83
2022/01/30 17:24:36;;;;;;;15.32;2.20;;;8.80;53.40;;;;;;4723545;30;20225;-83
2022/01/30 17:27:03;;;;;;;10.57;2.83;;;8.70;53.40;;;;;;4722051;30;20099;-83
2022/01/30 17:29:29;;;;;;;10.10;2.45;;;8.70;53.50;;;;;;4728330;30;20056;-83
2022/01/30 17:31:55;;;;;;;9.15;2.20;;;8.70;53.40;;;;;;4759826;30;20066;-85
2022/01/30 17:34:21;;;;;;;12.40;2.47;;;8.70;53.40;;;;;;4723535;30;20029;-82
2022/01/30 17:36:47;;;;;;;8.95;2.30;;;8.70;53.70;;;;;;4723849;30;20107;-84